createdAt,value
2018-07-23T00:00:01.399Z,5.30
2018-07-23T00:02:30.382Z,5.30
2018-07-23T00:04:59.432Z,5.53
2018-07-23T00:07:28.380Z,5.20
2018-07-23T00:09:57.344Z,4.73
2018-07-23T00:12:26.569Z,5.17
2018-07-23T00:14:55.525Z,4.67
2018-07-23T00:17:25.631Z,5.00
2018-07-23T00:19:54.728Z,5.37
2018-07-23T00:22:23.727Z,5.17
2018-07-23T00:24:52.742Z,4.93
2018-07-23T00:27:21.906Z,5.50
2018-07-23T00:29:50.884Z,5.27
2018-07-23T00:32:19.863Z,5.00
2018-07-23T00:34:48.531Z,4.57
2018-07-23T00:37:17.496Z,5.00
2018-07-23T00:39:46.447Z,4.70
2018-07-23T00:42:15.399Z,5.00
2018-07-23T00:44:44.395Z,5.03
2018-07-23T00:47:13.345Z,5.00
2018-07-23T00:49:42.457Z,5.00
2018-07-23T00:52:11.397Z,5.17
2018-07-23T00:54:40.363Z,5.10
2018-07-23T00:57:09.461Z,5.03
2018-07-23T00:59:38.477Z,4.90
2018-07-23T01:02:07.481Z,5.17
2018-07-23T01:04:36.479Z,5.60
2018-07-23T01:07:05.675Z,5.20
2018-07-23T01:09:34.693Z,5.20
2018-07-23T01:12:03.750Z,5.43
2018-07-23T01:14:32.725Z,5.20
2018-07-23T01:17:01.708Z,5.03
2018-07-23T01:19:30.763Z,4.57
2018-07-23T01:21:59.783Z,5.13
2018-07-23T01:24:28.813Z,5.10
2018-07-23T01:26:57.799Z,5.40
2018-07-23T01:29:26.802Z,4.67
2018-07-23T01:31:55.789Z,4.63
2018-07-23T01:34:24.796Z,5.27
2018-07-23T01:36:53.811Z,5.63
2018-07-23T01:39:22.821Z,5.10
2018-07-23T01:41:51.837Z,5.03
2018-07-23T01:44:20.805Z,4.90
2018-07-23T01:46:49.765Z,5.03
2018-07-23T01:49:18.777Z,4.60
2018-07-23T01:51:47.723Z,4.67
2018-07-23T01:54:16.878Z,4.93
2018-07-23T01:56:45.835Z,4.53
2018-07-23T01:59:14.815Z,4.80
2018-07-23T02:01:43.795Z,4.83
2018-07-23T02:04:12.768Z,5.00
2018-07-23T02:06:41.784Z,5.10
2018-07-23T02:09:12.474Z,4.70
2018-07-23T02:11:41.884Z,5.10
2018-07-23T02:14:10.919Z,4.40
2018-07-23T02:16:39.936Z,4.80
2018-07-23T02:19:08.984Z,4.73
2018-07-23T02:21:38.017Z,4.80
2018-07-23T02:24:07.077Z,4.70
2018-07-23T02:26:36.043Z,4.60
2018-07-23T02:29:05.112Z,4.60
2018-07-23T02:31:33.878Z,5.30
2018-07-23T02:34:02.757Z,5.07
2018-07-23T02:36:31.766Z,5.37
2018-07-23T02:39:00.800Z,5.13
2018-07-23T02:41:29.524Z,5.07
2018-07-23T02:43:58.398Z,5.33
2018-07-23T02:46:27.450Z,5.40
2018-07-23T02:48:56.475Z,5.20
2018-07-23T02:51:25.516Z,4.87
2018-07-23T02:53:54.557Z,4.97
2018-07-23T02:56:24.161Z,5.30
2018-07-23T02:58:53.138Z,5.30
2018-07-23T03:01:21.904Z,5.37
2018-07-23T03:03:50.802Z,5.30
2018-07-23T03:06:19.749Z,5.20
2018-07-23T03:08:48.722Z,5.20
2018-07-23T03:11:17.782Z,5.40
2018-07-23T03:13:46.802Z,5.50
2018-07-23T03:16:15.785Z,5.10
2018-07-23T03:18:44.804Z,5.60
2018-07-23T03:21:13.928Z,4.83
2018-07-23T03:23:42.915Z,5.17
2018-07-23T03:26:11.926Z,5.10
2018-07-23T03:28:41.086Z,5.47
2018-07-23T03:31:10.160Z,5.50
2018-07-23T03:33:39.182Z,5.50
2018-07-23T03:36:08.198Z,5.60
2018-07-23T03:38:37.224Z,6.07
2018-07-23T03:41:06.292Z,5.37
2018-07-23T03:43:35.294Z,5.60
2018-07-23T03:46:04.951Z,5.47
2018-07-23T03:48:33.965Z,5.40
2018-07-23T03:51:03.026Z,5.50
2018-07-23T03:53:32.072Z,5.43
2018-07-23T03:56:01.134Z,5.60
2018-07-23T03:58:30.124Z,5.70
2018-07-23T04:00:59.120Z,5.77
2018-07-23T04:03:28.176Z,5.50
2018-07-23T04:05:57.158Z,5.40
2018-07-23T04:08:26.184Z,5.53
2018-07-23T04:10:55.269Z,5.57
2018-07-23T04:13:24.223Z,5.73
2018-07-23T04:15:53.238Z,5.70
2018-07-23T04:18:22.232Z,5.70
2018-07-23T04:20:51.246Z,5.47
2018-07-23T04:23:20.304Z,5.60
2018-07-23T04:25:49.280Z,6.07
2018-07-23T04:28:18.292Z,5.43
2018-07-23T04:30:47.352Z,5.50
2018-07-23T04:33:16.403Z,5.43
2018-07-23T04:35:45.410Z,5.60
2018-07-23T04:38:14.395Z,5.77
2018-07-23T04:40:43.402Z,5.87
2018-07-23T04:43:12.409Z,5.50
2018-07-23T04:45:41.381Z,5.30
2018-07-23T04:48:10.402Z,4.90
2018-07-23T04:50:39.665Z,5.60
2018-07-23T04:53:08.645Z,5.47
2018-07-23T04:55:37.659Z,5.70
2018-07-23T04:58:06.818Z,5.83
2018-07-23T05:00:35.881Z,5.83
2018-07-23T05:03:04.921Z,5.47
2018-07-23T05:05:33.985Z,5.90
2018-07-23T05:08:02.998Z,5.73
2018-07-23T05:10:31.991Z,5.70
2018-07-23T05:13:01.151Z,5.30
2018-07-23T05:15:30.246Z,5.70
2018-07-23T05:17:59.229Z,6.00
2018-07-23T05:20:28.205Z,5.60
2018-07-23T05:22:57.310Z,5.67
2018-07-23T05:25:26.042Z,6.10
2018-07-23T05:27:55.353Z,5.90
2018-07-23T05:30:24.657Z,5.73
2018-07-23T05:32:53.781Z,6.30
2018-07-23T05:35:22.882Z,6.00
2018-07-23T05:37:51.881Z,5.67
2018-07-23T05:40:21.121Z,5.50
2018-07-23T05:42:50.136Z,5.80
2018-07-23T05:45:19.163Z,5.80
2018-07-23T05:47:48.182Z,5.80
2018-07-23T05:50:17.198Z,5.90
2018-07-23T05:52:46.218Z,5.60
2018-07-23T05:55:15.350Z,5.80
2018-07-23T05:57:44.328Z,5.80
2018-07-23T06:00:13.462Z,6.03
2018-07-23T06:02:42.760Z,5.30
2018-07-23T06:05:11.756Z,5.90
2018-07-23T06:07:40.796Z,5.20
2018-07-23T06:10:09.864Z,5.60
2018-07-23T06:12:39.091Z,5.90
2018-07-23T06:15:08.628Z,5.83
2018-07-23T06:17:37.631Z,5.50
2018-07-23T06:20:07.650Z,5.60
2018-07-23T06:22:36.635Z,5.53
2018-07-23T06:25:06.218Z,5.90
2018-07-23T06:27:35.244Z,5.43
2018-07-23T06:30:06.426Z,6.37
2018-07-23T06:32:35.460Z,5.97
2018-07-23T06:35:04.468Z,5.70
2018-07-23T06:37:33.905Z,5.63
2018-07-23T06:40:03.023Z,5.90
2018-07-23T06:42:32.048Z,5.97
2018-07-23T06:45:01.060Z,6.27
2018-07-23T06:47:30.080Z,6.00
2018-07-23T06:49:59.070Z,5.87
2018-07-23T06:52:28.156Z,6.07
2018-07-23T06:54:57.241Z,5.90
2018-07-23T06:57:26.287Z,6.00
2018-07-23T06:59:55.270Z,6.43
2018-07-23T07:02:24.306Z,5.87
2018-07-23T07:04:53.684Z,5.80
2018-07-23T07:07:22.705Z,6.07
2018-07-23T07:09:51.785Z,6.30
2018-07-23T07:12:20.874Z,6.30
2018-07-23T07:14:50.016Z,5.97
2018-07-23T07:17:18.981Z,7.03
2018-07-23T07:19:47.974Z,6.30
2018-07-23T07:22:17.001Z,5.93
2018-07-23T07:24:46.038Z,5.97
2018-07-23T07:27:15.130Z,6.53
2018-07-23T07:29:44.129Z,6.40
2018-07-23T07:32:13.237Z,6.60
2018-07-23T07:34:42.261Z,6.00
2018-07-23T07:37:11.249Z,6.07
2018-07-23T07:39:40.257Z,5.93
2018-07-23T07:42:09.217Z,6.00
2018-07-23T07:44:38.269Z,6.47
2018-07-23T07:47:07.235Z,6.30
2018-07-23T07:49:36.241Z,5.73
2018-07-23T07:52:05.209Z,5.50
2018-07-23T07:54:34.318Z,5.83
2018-07-23T07:57:03.318Z,5.83
2018-07-23T07:59:32.267Z,5.77
2018-07-23T08:02:01.296Z,6.33
2018-07-23T08:04:30.223Z,5.70
2018-07-23T08:06:59.399Z,5.70
2018-07-23T08:09:28.368Z,5.23
2018-07-23T08:11:57.047Z,5.73
2018-07-23T08:14:25.957Z,6.33
2018-07-23T08:16:55.010Z,6.30
2018-07-23T08:19:24.147Z,5.40
2018-07-23T08:21:53.477Z,5.83
2018-07-23T08:24:22.526Z,5.50
2018-07-23T08:26:51.524Z,5.20
2018-07-23T08:29:20.463Z,5.70
2018-07-23T08:31:49.642Z,5.43
2018-07-23T08:34:18.597Z,5.43
2018-07-23T08:36:47.585Z,5.57
2018-07-23T08:39:16.617Z,5.67
2018-07-23T08:41:45.605Z,4.93
2018-07-23T08:44:14.681Z,5.20
2018-07-23T08:46:43.721Z,5.40
2018-07-23T08:49:12.785Z,5.37
2018-07-23T08:51:41.743Z,4.87
2018-07-23T08:54:10.749Z,4.60
2018-07-23T08:56:39.737Z,4.60
2018-07-23T08:59:08.773Z,4.37
2018-07-23T09:01:37.764Z,4.70
2018-07-23T09:04:07.041Z,4.10
2018-07-23T09:06:36.085Z,4.13
2018-07-23T09:09:07.391Z,3.90
2018-07-23T09:11:36.453Z,4.30
2018-07-23T09:14:05.941Z,4.37
2018-07-23T09:16:35.090Z,4.30
2018-07-23T09:19:04.287Z,4.50
2018-07-23T09:21:33.369Z,4.20
2018-07-23T09:24:02.470Z,4.20
2018-07-23T09:26:31.441Z,4.60
2018-07-23T09:29:00.417Z,4.50
2018-07-23T09:31:29.421Z,4.30
2018-07-23T09:33:58.172Z,4.27
2018-07-23T09:36:27.103Z,3.70
2018-07-23T09:38:56.140Z,3.97
2018-07-23T09:41:25.197Z,3.73
2018-07-23T09:43:53.944Z,4.30
2018-07-23T09:46:22.852Z,4.10
2018-07-23T09:48:51.864Z,4.90
2018-07-23T09:51:20.915Z,4.40
2018-07-23T09:53:49.999Z,4.50
2018-07-23T09:56:18.975Z,4.50
2018-07-23T09:58:47.948Z,4.13
2018-07-23T10:01:18.713Z,4.63
2018-07-23T10:03:48.214Z,4.37
2018-07-23T10:06:17.910Z,4.70
2018-07-23T10:08:46.910Z,4.60
2018-07-23T10:11:15.913Z,4.83
2018-07-23T10:13:44.904Z,4.20
2018-07-23T10:16:13.880Z,4.20
2018-07-23T10:18:42.826Z,4.10
2018-07-23T10:21:11.802Z,4.23
2018-07-23T10:23:40.786Z,4.77
2018-07-23T10:26:09.814Z,4.60
2018-07-23T10:28:38.789Z,4.80
2018-07-23T10:31:08.014Z,4.87
2018-07-23T10:33:37.006Z,4.47
2018-07-23T10:36:06.486Z,4.10
2018-07-23T10:38:35.459Z,4.27
2018-07-23T10:41:04.449Z,4.90
2018-07-23T10:43:33.542Z,5.10
2018-07-23T10:46:03.456Z,4.40
2018-07-23T10:48:32.580Z,4.40
2018-07-23T10:51:01.729Z,4.40
2018-07-23T10:53:30.634Z,4.57
2018-07-23T10:55:59.718Z,4.60
2018-07-23T10:58:28.685Z,4.10
2018-07-23T11:00:57.790Z,3.80
2018-07-23T11:03:26.744Z,4.00
2018-07-23T11:05:55.802Z,4.73
2018-07-23T11:08:24.860Z,4.13
2018-07-23T11:10:53.921Z,4.30
2018-07-23T11:13:23.099Z,4.10
2018-07-23T11:15:52.193Z,4.17
2018-07-23T11:18:21.216Z,4.33
2018-07-23T11:20:50.205Z,4.30
2018-07-23T11:23:19.218Z,4.40
2018-07-23T11:25:48.267Z,3.97
2018-07-23T11:28:17.302Z,4.40
2018-07-23T11:30:46.282Z,4.10
2018-07-23T11:33:15.701Z,3.83
2018-07-23T11:35:44.696Z,3.87
2018-07-23T11:38:13.655Z,3.63
2018-07-23T11:40:42.684Z,3.77
2018-07-23T11:43:11.701Z,4.10
2018-07-23T11:45:40.710Z,4.10
2018-07-23T11:48:09.730Z,4.23
2018-07-23T11:50:38.745Z,3.93
2018-07-23T11:53:07.693Z,3.70
2018-07-23T11:55:36.397Z,3.77
2018-07-23T11:58:05.462Z,4.10
2018-07-23T12:00:34.471Z,3.63
2018-07-23T12:03:03.428Z,3.90
2018-07-23T12:05:32.463Z,4.20
2018-07-23T12:08:01.423Z,4.03
2018-07-23T12:10:30.374Z,3.90
2018-07-23T12:12:59.360Z,3.70
2018-07-23T12:15:28.364Z,3.53
2018-07-23T12:17:57.314Z,3.77
2018-07-23T12:20:26.276Z,3.80
2018-07-23T12:22:55.278Z,3.83
2018-07-23T12:25:24.282Z,4.00
2018-07-23T12:27:53.312Z,3.70
2018-07-23T12:30:22.361Z,4.07
2018-07-23T12:32:51.349Z,4.20
2018-07-23T12:35:20.330Z,3.50
2018-07-23T12:37:49.373Z,3.93
2018-07-23T12:40:18.348Z,3.80
2018-07-23T12:42:47.329Z,3.67
2018-07-23T12:45:16.416Z,3.70
2018-07-23T12:47:45.492Z,3.90
2018-07-23T12:50:14.465Z,3.60
2018-07-23T12:52:43.534Z,4.13
2018-07-23T12:55:12.499Z,4.07
2018-07-23T12:57:41.493Z,3.80
2018-07-23T13:00:10.521Z,3.40
2018-07-23T13:02:39.549Z,4.30
2018-07-23T13:05:08.804Z,3.70
2018-07-23T13:07:37.800Z,3.80
2018-07-23T13:10:06.502Z,3.90
2018-07-23T13:12:35.492Z,3.93
2018-07-23T13:15:05.113Z,4.20
2018-07-23T13:17:34.225Z,3.90
2018-07-23T13:20:03.277Z,4.20
2018-07-23T13:22:32.286Z,3.90
2018-07-23T13:25:01.383Z,4.30
2018-07-23T13:27:30.478Z,3.70
2018-07-23T13:29:59.470Z,3.57
2018-07-23T13:32:28.442Z,4.00
2018-07-23T13:34:57.442Z,3.77
2018-07-23T13:37:26.436Z,4.07
2018-07-23T13:39:55.450Z,3.60
2018-07-23T13:42:24.402Z,3.57
2018-07-23T13:44:53.390Z,3.50
2018-07-23T13:47:22.424Z,4.10
2018-07-23T13:49:51.402Z,3.90
2018-07-23T13:52:20.410Z,3.80
2018-07-23T13:54:49.652Z,3.93
2018-07-23T13:57:18.805Z,4.07
2018-07-23T13:59:47.783Z,3.77
2018-07-23T14:02:16.739Z,3.70
2018-07-23T14:04:46.657Z,4.40
2018-07-23T14:07:15.674Z,4.40
2018-07-23T14:09:44.645Z,3.73
2018-07-23T14:12:13.782Z,4.00
2018-07-23T14:14:42.942Z,4.20
2018-07-23T14:17:12.386Z,4.70
2018-07-23T14:19:41.377Z,4.10
2018-07-23T14:22:10.357Z,3.80
2018-07-23T14:24:39.376Z,4.10
2018-07-23T14:27:08.378Z,4.47
2018-07-23T14:29:37.353Z,4.07
2018-07-23T14:32:06.411Z,4.37
2018-07-23T14:34:35.429Z,4.00
2018-07-23T14:37:04.429Z,4.43
2018-07-23T14:39:33.439Z,4.23
2018-07-23T14:42:02.634Z,3.97
2018-07-23T14:44:32.551Z,4.20
2018-07-23T14:47:01.517Z,4.30
2018-07-23T14:49:30.329Z,5.03
2018-07-23T14:51:59.257Z,5.30
2018-07-23T14:54:28.217Z,5.30
2018-07-23T14:56:57.209Z,5.60
2018-07-23T14:59:26.193Z,5.23
2018-07-23T15:01:55.221Z,5.27
2018-07-23T15:04:24.267Z,5.10
2018-07-23T15:06:53.233Z,4.90
2018-07-23T15:09:22.245Z,5.23
2018-07-23T15:11:51.271Z,5.30
2018-07-23T15:14:20.376Z,5.00
2018-07-23T15:16:49.329Z,4.90
2018-07-23T15:19:18.365Z,4.63
2018-07-23T15:21:48.057Z,4.40
2018-07-23T15:24:17.085Z,4.63
2018-07-23T15:26:46.505Z,4.43
2018-07-23T15:29:15.485Z,5.00
2018-07-23T15:31:44.513Z,6.47
2018-07-23T15:34:13.536Z,4.90
2018-07-23T15:36:42.513Z,5.03
2018-07-23T15:39:11.703Z,4.90
2018-07-23T15:41:40.519Z,5.20
2018-07-23T15:44:09.459Z,4.87
2018-07-23T15:46:38.465Z,5.27
2018-07-23T15:49:07.571Z,5.30
2018-07-23T15:51:36.553Z,4.90
2018-07-23T15:54:06.005Z,5.30
2018-07-23T15:56:35.162Z,5.73
2018-07-23T15:59:04.154Z,5.20
2018-07-23T16:01:33.137Z,5.30
2018-07-23T16:04:02.179Z,5.47
2018-07-23T16:06:31.229Z,5.47
2018-07-23T16:09:00.169Z,5.70
2018-07-23T16:11:29.216Z,5.50
2018-07-23T16:13:58.272Z,5.60
2018-07-23T16:16:27.299Z,5.63
2018-07-23T16:18:56.405Z,5.37
2018-07-23T16:21:25.423Z,5.70
2018-07-23T16:23:54.383Z,5.83
2018-07-23T16:26:23.360Z,5.70
2018-07-23T16:28:52.378Z,5.40
2018-07-23T16:31:21.372Z,5.53
2018-07-23T16:33:50.100Z,5.87
2018-07-23T16:36:19.013Z,6.10
2018-07-23T16:38:47.970Z,5.93
2018-07-23T16:41:16.964Z,5.67
2018-07-23T16:43:46.031Z,5.70
2018-07-23T16:46:15.129Z,6.07
2018-07-23T16:48:44.085Z,6.03
2018-07-23T16:51:13.047Z,5.60
2018-07-23T16:53:42.078Z,5.30
2018-07-23T16:56:11.041Z,5.63
2018-07-23T16:58:39.993Z,5.73
2018-07-23T17:01:08.957Z,6.03
2018-07-23T17:03:37.984Z,5.60
2018-07-23T17:06:06.945Z,5.03
2018-07-23T17:08:35.938Z,5.47
2018-07-23T17:11:05.012Z,5.63
2018-07-23T17:13:33.989Z,5.17
2018-07-23T17:16:02.973Z,5.30
2018-07-23T17:18:31.997Z,5.40
2018-07-23T17:21:00.970Z,5.30
2018-07-23T17:23:30.010Z,5.73
2018-07-23T17:25:59.050Z,5.87
2018-07-23T17:28:28.036Z,5.27
2018-07-23T17:30:57.043Z,5.40
2018-07-23T17:33:26.067Z,5.90
2018-07-23T17:35:55.173Z,6.23
2018-07-23T17:38:24.297Z,5.57
2018-07-23T17:40:53.341Z,5.83
2018-07-23T17:43:22.475Z,5.30
2018-07-23T17:45:51.515Z,5.50
2018-07-23T17:48:20.677Z,5.00
2018-07-23T17:50:49.679Z,5.93
2018-07-23T17:53:18.797Z,5.37
2018-07-23T17:55:48.311Z,5.30
2018-07-23T17:58:17.344Z,5.93
2018-07-23T18:00:46.321Z,5.43
2018-07-23T18:03:15.345Z,5.63
2018-07-23T18:05:44.416Z,5.13
2018-07-23T18:08:13.440Z,5.53
2018-07-23T18:10:42.458Z,4.90
2018-07-23T18:13:11.429Z,5.47
2018-07-23T18:15:40.455Z,5.20
2018-07-23T18:18:09.477Z,5.23
2018-07-23T18:20:38.480Z,5.63
2018-07-23T18:23:07.746Z,5.50
2018-07-23T18:25:36.773Z,5.30
2018-07-23T18:28:05.873Z,5.40
2018-07-23T18:30:34.849Z,5.43
2018-07-23T18:33:03.880Z,5.47
2018-07-23T18:35:32.905Z,5.40
2018-07-23T18:38:02.028Z,5.23
2018-07-23T18:40:30.945Z,5.80
2018-07-23T18:42:59.948Z,5.53
2018-07-23T18:45:29.021Z,5.17
2018-07-23T18:47:58.112Z,5.00
2018-07-23T18:50:27.101Z,5.30
2018-07-23T18:52:56.062Z,5.20
2018-07-23T18:55:25.084Z,5.50
2018-07-23T18:57:54.072Z,5.00
2018-07-23T19:00:23.162Z,5.30
2018-07-23T19:02:52.193Z,5.40
2018-07-23T19:05:21.194Z,4.87
2018-07-23T19:07:50.176Z,4.93
2018-07-23T19:10:19.184Z,4.97
2018-07-23T19:12:48.160Z,5.00
2018-07-23T19:15:17.302Z,5.10
2018-07-23T19:17:46.463Z,4.97
2018-07-23T19:20:15.530Z,5.00
2018-07-23T19:22:44.496Z,4.83
2018-07-23T19:25:13.630Z,4.83
2018-07-23T19:27:42.686Z,5.10
2018-07-23T19:30:11.692Z,4.90
2018-07-23T19:32:40.717Z,4.67
2018-07-23T19:35:09.991Z,4.97
2018-07-23T19:37:39.020Z,5.10
2018-07-23T19:40:08.028Z,4.87
2018-07-23T19:42:37.133Z,5.00
2018-07-23T19:45:06.381Z,4.80
2018-07-23T19:47:35.492Z,5.00
2018-07-23T19:50:04.953Z,4.93
2018-07-23T19:52:33.940Z,5.07
2018-07-23T19:55:02.948Z,6.87
2018-07-23T19:57:32.745Z,5.47
2018-07-23T20:00:01.788Z,4.77
2018-07-23T20:02:30.812Z,4.70
2018-07-23T20:04:59.870Z,4.87
2018-07-23T20:07:28.978Z,5.20
2018-07-23T20:09:58.049Z,5.20
2018-07-23T20:12:27.008Z,4.87
2018-07-23T20:14:56.074Z,5.50
2018-07-23T20:17:25.055Z,5.17
2018-07-23T20:19:54.048Z,5.57
2018-07-23T20:22:23.702Z,5.27
2018-07-23T20:24:52.731Z,5.07
2018-07-23T20:27:21.818Z,5.10
2018-07-23T20:29:50.812Z,5.37
2018-07-23T20:32:19.837Z,5.30
2018-07-23T20:34:48.877Z,5.17
2018-07-23T20:37:17.996Z,5.93
2018-07-23T20:39:47.103Z,5.87
2018-07-23T20:42:16.114Z,5.07
2018-07-23T20:44:45.170Z,5.20
2018-07-23T20:47:14.265Z,5.23
2018-07-23T20:49:43.253Z,4.87
2018-07-23T20:52:12.205Z,5.27
2018-07-23T20:54:41.224Z,5.70
2018-07-23T20:59:37.877Z,5.80
2018-07-23T21:02:07.007Z,5.40
2018-07-23T21:04:35.969Z,5.80
2018-07-23T21:07:05.496Z,5.87
2018-07-23T21:09:34.450Z,6.00
2018-07-23T21:12:03.493Z,6.00
2018-07-23T21:14:32.531Z,6.07
2018-07-23T21:17:01.533Z,5.07
2018-07-23T21:19:30.509Z,5.93
2018-07-23T21:21:59.653Z,5.83
2018-07-23T21:24:28.657Z,5.50
2018-07-23T21:26:57.689Z,5.90
2018-07-23T21:29:26.707Z,6.07
2018-07-23T21:31:55.793Z,6.07
2018-07-23T21:34:24.767Z,6.00
2018-07-23T21:36:53.789Z,6.27
2018-07-23T21:39:22.781Z,6.67
2018-07-23T21:41:51.752Z,6.43
2018-07-23T21:44:20.813Z,6.77
2018-07-23T21:46:49.829Z,5.97
2018-07-23T21:49:18.811Z,6.10
2018-07-23T21:51:47.813Z,7.00
2018-07-23T21:54:16.841Z,6.90
2018-07-23T21:56:45.973Z,6.90
2018-07-23T21:59:15.019Z,7.20
2018-07-23T22:01:44.079Z,7.07
2018-07-23T22:04:12.819Z,7.23
2018-07-23T22:06:41.847Z,7.20
2018-07-23T22:09:10.861Z,7.10
2018-07-23T22:11:39.900Z,6.97
2018-07-23T22:14:09.473Z,7.00
2018-07-23T22:16:39.063Z,7.10
2018-07-23T22:19:08.177Z,7.47
2018-07-23T22:21:37.149Z,6.83
2018-07-23T22:24:06.183Z,6.80
2018-07-23T22:26:40.507Z,6.67
2018-07-23T22:29:09.557Z,6.53
2018-07-23T22:31:38.635Z,7.20
2018-07-23T22:34:07.920Z,6.37
2018-07-23T22:36:36.929Z,7.00
2018-07-23T22:39:08.396Z,6.30
2018-07-23T22:41:37.914Z,7.00
2018-07-23T22:44:06.923Z,7.07
2018-07-23T22:46:36.072Z,6.83
2018-07-23T22:49:05.220Z,6.40
2018-07-23T22:51:34.208Z,5.93
2018-07-23T22:54:03.278Z,6.80
2018-07-23T22:56:32.404Z,6.60
2018-07-23T22:59:01.394Z,6.80
2018-07-23T23:01:30.358Z,6.90
2018-07-23T23:03:59.366Z,7.40
2018-07-23T23:06:28.350Z,6.80
2018-07-23T23:08:57.358Z,6.27
2018-07-23T23:11:26.361Z,6.00
2018-07-23T23:13:55.358Z,6.17
2018-07-23T23:16:24.364Z,6.20
2018-07-23T23:18:53.339Z,5.97
2018-07-23T23:21:22.372Z,6.50
2018-07-23T23:23:51.358Z,6.40
2018-07-23T23:26:20.330Z,6.40
2018-07-23T23:28:49.356Z,6.80
2018-07-23T23:31:18.320Z,6.63
2018-07-23T23:33:47.312Z,6.30
2018-07-23T23:36:16.296Z,6.90
2018-07-23T23:38:45.868Z,6.90
2018-07-23T23:41:14.870Z,6.70
2018-07-23T23:43:43.856Z,6.83
2018-07-23T23:46:12.872Z,6.53
2018-07-23T23:48:41.884Z,6.80
2018-07-23T23:51:10.868Z,7.30
2018-07-23T23:53:39.847Z,7.30
2018-07-23T23:56:08.840Z,6.87
2018-07-23T23:58:37.885Z,7.77
